sensor_id;sensor_type;location;lat;lon;timestamp;pressure;altitude;pressure_sealevel;temperature;humidity
13241;BME280;6687;47.790;7.322;2024-02-26T06:18:30;97038.88;;;8.43;100.00
13241;BME280;6687;47.790;7.322;2024-02-26T06:20:57;97030.50;;;8.32;100.00
13241;BME280;6687;47.790;7.322;2024-02-26T06:23:24;97036.63;;;8.26;100.00
13241;BME280;6687;47.790;7.322;2024-02-26T06:25:51;97043.25;;;8.40;100.00
13241;BME280;6687;47.790;7.322;2024-02-26T06:28:19;97045.00;;;8.38;100.00
13241;BME280;6687;47.790;7.322;2024-02-26T06:30:45;97052.09;;;8.26;100.00
13241;BME280;6687;47.790;7.322;2024-02-26T06:33:12;97046.47;;;8.49;100.00
13241;BME280;6687;47.790;7.322;2024-02-26T06:35:41;97039.31;;;8.22;100.00
13241;BME280;6687;47.790;7.322;2024-02-26T06:38:07;97038.94;;;8.39;100.00
13241;BME280;6687;47.790;7.322;2024-02-26T06:40:34;97049.41;;;8.31;100.00
13241;BME280;6687;47.790;7.322;2024-02-26T06:43:01;97041.94;;;8.19;100.00
13241;BME280;6687;47.790;7.322;2024-02-26T06:45:28;97046.91;;;8.28;100.00
13241;BME280;6687;47.790;7.322;2024-02-26T06:47:55;97058.50;;;8.07;100.00
13241;BME280;6687;47.790;7.322;2024-02-26T06:50:22;97071.13;;;8.21;100.00
13241;BME280;6687;47.790;7.322;2024-02-26T06:52:50;97065.75;;;8.31;100.00
13241;BME280;6687;47.790;7.322;2024-02-26T06:55:16;97079.69;;;8.21;100.00
13241;BME280;6687;47.790;7.322;2024-02-26T06:57:43;97081.84;;;8.46;100.00
13241;BME280;6687;47.790;7.322;2024-02-26T07:00:11;97078.75;;;8.25;100.00
13241;BME280;6687;47.790;7.322;2024-02-26T07:02:40;97076.72;;;8.44;100.00
13241;BME280;6687;47.790;7.322;2024-02-26T07:05:07;97086.66;;;8.63;100.00
13241;BME280;6687;47.790;7.322;2024-02-26T07:07:34;97080.91;;;8.50;100.00
13241;BME280;6687;47.790;7.322;2024-02-26T07:10:03;97084.78;;;8.69;100.00
13241;BME280;6687;47.790;7.322;2024-02-26T07:12:31;97088.41;;;8.61;100.00
13241;BME280;6687;47.790;7.322;2024-02-26T07:14:57;97088.16;;;8.73;100.00
13241;BME280;6687;47.790;7.322;2024-02-26T07:17:24;97099.06;;;8.87;100.00
13241;BME280;6687;47.790;7.322;2024-02-26T07:19:51;97088.69;;;8.89;100.00
13241;BME280;6687;47.790;7.322;2024-02-26T07:22:18;97093.31;;;8.73;100.00
13241;BME280;6687;47.790;7.322;2024-02-26T07:24:44;97094.78;;;8.86;100.00
13241;BME280;6687;47.790;7.322;2024-02-26T07:27:13;97092.03;;;8.94;100.00
13241;BME280;6687;47.790;7.322;2024-02-26T07:29:42;97091.88;;;9.00;100.00
13241;BME280;6687;47.790;7.322;2024-02-26T07:32:09;97094.56;;;8.95;100.00
13241;BME280;6687;47.790;7.322;2024-02-26T07:34:36;97097.84;;;9.04;100.00
13241;BME280;6687;47.790;7.322;2024-02-26T07:37:06;97095.16;;;9.07;100.00
13241;BME280;6687;47.790;7.322;2024-02-26T07:39:33;97094.97;;;9.16;100.00
13241;BME280;6687;47.790;7.322;2024-02-26T07:42:00;97099.38;;;9.11;100.00
13241;BME280;6687;47.790;7.322;2024-02-26T07:44:28;97094.44;;;9.02;100.00
13241;BME280;6687;47.790;7.322;2024-02-26T07:46:55;97096.47;;;9.26;100.00
13241;BME280;6687;47.790;7.322;2024-02-26T07:49:21;97097.03;;;9.02;100.00
13241;BME280;6687;47.790;7.322;2024-02-26T07:51:48;97098.97;;;9.29;100.00
13241;BME280;6687;47.790;7.322;2024-02-26T07:54:15;97102.72;;;9.53;100.00
13241;BME280;6687;47.790;7.322;2024-02-26T07:56:43;97105.19;;;9.58;100.00
13241;BME280;6687;47.790;7.322;2024-02-26T07:59:10;97110.50;;;9.52;100.00
13241;BME280;6687;47.790;7.322;2024-02-26T08:01:38;97114.72;;;9.56;100.00
13241;BME280;6687;47.790;7.322;2024-02-26T08:04:06;97106.75;;;9.65;100.00
13241;BME280;6687;47.790;7.322;2024-02-26T08:06:33;97120.78;;;9.55;100.00
13241;BME280;6687;47.790;7.322;2024-02-26T08:09:00;97115.22;;;9.70;100.00
13241;BME280;6687;47.790;7.322;2024-02-26T08:11:26;97117.31;;;9.54;100.00
13241;BME280;6687;47.790;7.322;2024-02-26T08:13:53;97118.47;;;9.79;100.00
13241;BME280;6687;47.790;7.322;2024-02-26T08:16:20;97119.25;;;9.82;100.00
13241;BME280;6687;47.790;7.322;2024-02-26T08:18:48;97125.81;;;9.95;100.00
13241;BME280;6687;47.790;7.322;2024-02-26T08:21:14;97124.34;;;9.85;100.00
13241;BME280;6687;47.790;7.322;2024-02-26T08:23:43;97126.31;;;10.10;100.00
13241;BME280;6687;47.790;7.322;2024-02-26T08:26:10;97121.75;;;10.20;100.00
13241;BME280;6687;47.790;7.322;2024-02-26T08:28:37;97116.28;;;10.30;100.00
13241;BME280;6687;47.790;7.322;2024-02-26T08:31:04;97120.63;;;10.30;100.00
13241;BME280;6687;47.790;7.322;2024-02-26T08:33:31;97112.97;;;10.25;100.00
13241;BME280;6687;47.790;7.322;2024-02-26T08:36:04;97126.22;;;10.47;100.00
13241;BME280;6687;47.790;7.322;2024-02-26T08:38:30;97123.00;;;10.05;100.00
13241;BME280;6687;47.790;7.322;2024-02-26T08:40:57;97109.66;;;9.86;100.00
13241;BME280;6687;47.790;7.322;2024-02-26T08:43:24;97123.78;;;10.41;100.00
13241;BME280;6687;47.790;7.322;2024-02-26T08:45:51;97122.69;;;10.50;100.00
13241;BME280;6687;47.790;7.322;2024-02-26T08:48:17;97128.00;;;10.45;100.00
13241;BME280;6687;47.790;7.322;2024-02-26T08:50:44;97128.88;;;10.44;100.00
13241;BME280;6687;47.790;7.322;2024-02-26T08:53:12;97133.13;;;10.47;100.00
13241;BME280;6687;47.790;7.322;2024-02-26T08:55:39;97131.84;;;10.62;100.00
13241;BME280;6687;47.790;7.322;2024-02-26T08:58:06;97134.88;;;10.76;100.00
13241;BME280;6687;47.790;7.322;2024-02-26T09:00:33;97145.25;;;10.76;100.00
13241;BME280;6687;47.790;7.322;2024-02-26T09:02:59;97141.97;;;10.71;100.00
13241;BME280;6687;47.790;7.322;2024-02-26T09:05:26;97134.00;;;10.77;100.00
13241;BME280;6687;47.790;7.322;2024-02-26T09:07:53;97137.63;;;11.01;100.00
13241;BME280;6687;47.790;7.322;2024-02-26T09:10:21;97126.09;;;11.11;100.00
13241;BME280;6687;47.790;7.322;2024-02-26T09:12:48;97134.47;;;10.91;100.00
13241;BME280;6687;47.790;7.322;2024-02-26T09:15:15;97137.59;;;11.03;100.00
13241;BME280;6687;47.790;7.322;2024-02-26T09:17:42;97144.81;;;10.91;100.00
13241;BME280;6687;47.790;7.322;2024-02-26T09:20:10;97152.63;;;10.90;100.00
13241;BME280;6687;47.790;7.322;2024-02-26T09:22:38;97146.34;;;10.99;100.00
13241;BME280;6687;47.790;7.322;2024-02-26T09:25:05;97157.00;;;11.18;100.00
13241;BME280;6687;47.790;7.322;2024-02-26T09:27:33;97167.00;;;11.30;100.00
13241;BME280;6687;47.790;7.322;2024-02-26T09:30:00;97156.59;;;11.31;100.00
13241;BME280;6687;47.790;7.322;2024-02-26T09:32:27;97158.91;;;11.41;100.00
13241;BME280;6687;47.790;7.322;2024-02-26T09:34:53;97162.13;;;11.49;100.00
13241;BME280;6687;47.790;7.322;2024-02-26T09:37:20;97174.81;;;11.58;100.00
13241;BME280;6687;47.790;7.322;2024-02-26T09:39:47;97175.50;;;11.63;100.00
13241;BME280;6687;47.790;7.322;2024-02-26T09:42:14;97172.06;;;11.63;100.00
13241;BME280;6687;47.790;7.322;2024-02-26T09:44:45;97178.50;;;11.78;100.00
13241;BME280;6687;47.790;7.322;2024-02-26T09:47:12;97180.28;;;11.49;100.00
13241;BME280;6687;47.790;7.322;2024-02-26T09:49:42;97188.44;;;11.37;100.00
13241;BME280;6687;47.790;7.322;2024-02-26T09:52:09;97188.47;;;11.63;100.00
13241;BME280;6687;47.790;7.322;2024-02-26T09:54:36;97188.47;;;11.63;100.00
13241;BME280;6687;47.790;7.322;2024-02-26T09:57:03;97183.34;;;11.90;100.00
13241;BME280;6687;47.790;7.322;2024-02-26T09:59:35;97176.84;;;12.03;100.00
13241;BME280;6687;47.790;7.322;2024-02-26T10:02:09;97184.63;;;12.03;100.00
13241;BME280;6687;47.790;7.322;2024-02-26T10:04:38;97190.78;;;11.72;100.00
13241;BME280;6687;47.790;7.322;2024-02-26T10:07:10;97191.34;;;11.82;100.00
13241;BME280;6687;47.790;7.322;2024-02-26T10:09:37;97194.47;;;11.93;100.00
13241;BME280;6687;47.790;7.322;2024-02-26T10:12:04;97186.25;;;11.51;100.00
13241;BME280;6687;47.790;7.322;2024-02-26T10:14:31;97194.72;;;11.28;97.30
13241;BME280;6687;47.790;7.322;2024-02-26T10:16:58;97191.59;;;11.74;98.10
13241;BME280;6687;47.790;7.322;2024-02-26T10:19:29;97199.47;;;11.43;96.89
13241;BME280;6687;47.790;7.322;2024-02-26T10:21:57;97191.03;;;11.93;98.94
13241;BME280;6687;47.790;7.322;2024-02-26T10:24:24;97187.44;;;12.24;100.00
13241;BME280;6687;47.790;7.322;2024-02-26T10:26:51;97197.38;;;12.38;100.00
13241;BME280;6687;47.790;7.322;2024-02-26T10:29:18;97205.28;;;12.33;100.00
13241;BME280;6687;47.790;7.322;2024-02-26T10:31:45;97206.00;;;12.38;100.00
13241;BME280;6687;47.790;7.322;2024-02-26T10:34:12;97209.09;;;12.23;97.43
13241;BME280;6687;47.790;7.322;2024-02-26T10:36:40;97210.22;;;12.41;97.07
13241;BME280;6687;47.790;7.322;2024-02-26T10:39:08;97214.59;;;12.65;99.06
13241;BME280;6687;47.790;7.322;2024-02-26T10:41:34;97222.19;;;12.20;94.93
13241;BME280;6687;47.790;7.322;2024-02-26T10:44:01;97217.13;;;12.42;93.43
13241;BME280;6687;47.790;7.322;2024-02-26T10:46:28;97217.44;;;12.32;95.59
13241;BME280;6687;47.790;7.322;2024-02-26T10:48:56;97227.75;;;12.07;92.51
13241;BME280;6687;47.790;7.322;2024-02-26T10:51:26;97232.63;;;12.70;94.16
13241;BME280;6687;47.790;7.322;2024-02-26T10:53:56;97233.28;;;13.00;96.03
13241;BME280;6687;47.790;7.322;2024-02-26T10:56:25;97236.66;;;12.53;88.95
13241;BME280;6687;47.790;7.322;2024-02-26T10:58:53;97237.91;;;12.92;90.02
13241;BME280;6687;47.790;7.322;2024-02-26T11:01:20;97243.19;;;13.14;92.61
13241;BME280;6687;47.790;7.322;2024-02-26T11:03:50;97237.47;;;12.79;88.92
13241;BME280;6687;47.790;7.322;2024-02-26T11:06:17;97228.56;;;12.86;88.90
13241;BME280;6687;47.790;7.322;2024-02-26T11:08:47;97232.13;;;13.32;93.48
13241;BME280;6687;47.790;7.322;2024-02-26T11:11:16;97232.88;;;13.36;92.87
13241;BME280;6687;47.790;7.322;2024-02-26T11:13:45;97234.38;;;13.18;90.13
13241;BME280;6687;47.790;7.322;2024-02-26T11:16:15;97228.34;;;13.18;87.01
13241;BME280;6687;47.790;7.322;2024-02-26T11:18:43;97241.66;;;13.57;90.46
13241;BME280;6687;47.790;7.322;2024-02-26T11:21:13;97242.00;;;13.70;89.67
13241;BME280;6687;47.790;7.322;2024-02-26T11:23:41;97246.13;;;13.76;90.10
13241;BME280;6687;47.790;7.322;2024-02-26T11:26:09;97246.94;;;13.54;86.00
13241;BME280;6687;47.790;7.322;2024-02-26T11:28:39;97247.50;;;13.39;83.08
13241;BME280;6687;47.790;7.322;2024-02-26T11:31:06;97239.19;;;13.52;81.27
13241;BME280;6687;47.790;7.322;2024-02-26T11:33:34;97239.00;;;13.81;84.13
13241;BME280;6687;47.790;7.322;2024-02-26T11:36:02;97239.25;;;13.97;86.95
13241;BME280;6687;47.790;7.322;2024-02-26T11:38:29;97243.19;;;14.07;87.06
13241;BME280;6687;47.790;7.322;2024-02-26T11:40:55;97236.06;;;14.10;88.30
13241;BME280;6687;47.790;7.322;2024-02-26T11:43:23;97240.06;;;13.53;81.72
13241;BME280;6687;47.790;7.322;2024-02-26T11:45:52;97225.66;;;14.10;85.04
13241;BME280;6687;47.790;7.322;2024-02-26T11:48:23;97232.81;;;14.05;86.17
13241;BME280;6687;47.790;7.322;2024-02-26T11:50:52;97222.91;;;13.93;80.56
13241;BME280;6687;47.790;7.322;2024-02-26T11:53:21;97223.63;;;14.19;83.91
13241;BME280;6687;47.790;7.322;2024-02-26T11:55:48;97226.81;;;14.25;83.09
13241;BME280;6687;47.790;7.322;2024-02-26T11:58:15;97220.28;;;13.93;77.37
13241;BME280;6687;47.790;7.322;2024-02-26T12:00:42;97221.28;;;14.33;78.98
13241;BME280;6687;47.790;7.322;2024-02-26T12:03:11;97226.16;;;14.63;84.14
13241;BME280;6687;47.790;7.322;2024-02-26T12:05:38;97218.44;;;14.60;85.14
13241;BME280;6687;47.790;7.322;2024-02-26T12:08:07;97229.91;;;14.76;85.16
13241;BME280;6687;47.790;7.322;2024-02-26T12:10:35;97225.81;;;14.91;86.59
13241;BME280;6687;47.790;7.322;2024-02-26T12:13:05;97232.63;;;14.94;84.01
13241;BME280;6687;47.790;7.322;2024-02-26T12:15:36;97233.16;;;15.02;83.53
13241;BME280;6687;47.790;7.322;2024-02-26T12:18:04;97231.75;;;14.95;82.64
13241;BME280;6687;47.790;7.322;2024-02-26T12:20:33;97232.78;;;14.70;77.34
13241;BME280;6687;47.790;7.322;2024-02-26T12:23:01;97239.13;;;14.85;79.33
13241;BME280;6687;47.790;7.322;2024-02-26T12:25:29;97237.06;;;14.91;77.27
13241;BME280;6687;47.790;7.322;2024-02-26T12:27:57;97235.75;;;15.02;78.76
13241;BME280;6687;47.790;7.322;2024-02-26T12:30:24;97229.09;;;15.15;81.05
13241;BME280;6687;47.790;7.322;2024-02-26T12:32:52;97239.91;;;15.26;82.90
13241;BME280;6687;47.790;7.322;2024-02-26T12:35:22;97230.31;;;15.27;83.12
13241;BME280;6687;47.790;7.322;2024-02-26T12:37:52;97225.09;;;14.87;72.05
13241;BME280;6687;47.790;7.322;2024-02-26T12:40:19;97220.09;;;15.02;75.03
13241;BME280;6687;47.790;7.322;2024-02-26T12:42:46;97219.09;;;14.85;72.66
13241;BME280;6687;47.790;7.322;2024-02-26T12:45:13;97220.88;;;15.24;83.00
13241;BME280;6687;47.790;7.322;2024-02-26T12:47:41;97214.16;;;14.79;72.36
13241;BME280;6687;47.790;7.322;2024-02-26T12:50:10;97210.00;;;15.15;80.73
13241;BME280;6687;47.790;7.322;2024-02-26T12:52:40;97215.59;;;14.86;69.91
13241;BME280;6687;47.790;7.322;2024-02-26T12:55:11;97215.97;;;14.77;72.33
13241;BME280;6687;47.790;7.322;2024-02-26T12:57:40;97213.47;;;14.53;70.32
13241;BME280;6687;47.790;7.322;2024-02-26T13:00:11;97211.31;;;14.43;68.34
13241;BME280;6687;47.790;7.322;2024-02-26T13:02:40;97200.56;;;14.30;68.33
13241;BME280;6687;47.790;7.322;2024-02-26T13:05:10;97198.72;;;14.32;70.42
13241;BME280;6687;47.790;7.322;2024-02-26T13:07:41;97198.31;;;14.63;73.51
13241;BME280;6687;47.790;7.322;2024-02-26T13:10:09;97197.75;;;14.57;72.08
13241;BME280;6687;47.790;7.322;2024-02-26T13:12:42;97207.19;;;14.17;68.39
13241;BME280;6687;47.790;7.322;2024-02-26T13:15:14;97208.09;;;14.36;71.98
13241;BME280;6687;47.790;7.322;2024-02-26T13:17:41;97210.75;;;14.77;80.48
13241;BME280;6687;47.790;7.322;2024-02-26T13:20:08;97210.50;;;14.83;81.86
13241;BME280;6687;47.790;7.322;2024-02-26T13:22:35;97209.66;;;14.40;76.74
13241;BME280;6687;47.790;7.322;2024-02-26T13:25:02;97202.53;;;14.25;72.15
13241;BME280;6687;47.790;7.322;2024-02-26T13:27:30;97198.28;;;14.00;69.26
13241;BME280;6687;47.790;7.322;2024-02-26T13:30:05;97204.28;;;14.02;69.79
13241;BME280;6687;47.790;7.322;2024-02-26T13:32:33;97198.56;;;14.37;74.96
13241;BME280;6687;47.790;7.322;2024-02-26T13:35:05;97199.47;;;13.93;69.18
13241;BME280;6687;47.790;7.322;2024-02-26T13:37:32;97210.91;;;14.11;74.56
13241;BME280;6687;47.790;7.322;2024-02-26T13:39:59;97207.06;;;14.40;83.35
13241;BME280;6687;47.790;7.322;2024-02-26T13:42:31;97215.13;;;14.13;73.82
13241;BME280;6687;47.790;7.322;2024-02-26T13:44:58;97217.94;;;14.09;73.30
13241;BME280;6687;47.790;7.322;2024-02-26T13:47:24;97210.06;;;14.31;72.33
13241;BME280;6687;47.790;7.322;2024-02-26T13:49:51;97216.09;;;14.11;72.02
13241;BME280;6687;47.790;7.322;2024-02-26T13:52:18;97204.72;;;14.13;77.34
13241;BME280;6687;47.790;7.322;2024-02-26T13:54:45;97214.31;;;14.54;87.25
13241;BME280;6687;47.790;7.322;2024-02-26T13:57:12;97212.59;;;13.90;71.49
13241;BME280;6687;47.790;7.322;2024-02-26T13:59:40;97215.03;;;14.37;82.32
13241;BME280;6687;47.790;7.322;2024-02-26T14:02:08;97221.16;;;14.14;74.87
13241;BME280;6687;47.790;7.322;2024-02-26T14:04:34;97214.78;;;14.43;74.46
13241;BME280;6687;47.790;7.322;2024-02-26T14:07:01;97210.41;;;14.01;68.65
13241;BME280;6687;47.790;7.322;2024-02-26T14:09:28;97216.59;;;14.21;71.07
13241;BME280;6687;47.790;7.322;2024-02-26T14:11:55;97207.22;;;14.37;76.08
13241;BME280;6687;47.790;7.322;2024-02-26T14:14:22;97207.25;;;14.15;71.67
13241;BME280;6687;47.790;7.322;2024-02-26T14:16:50;97208.16;;;14.57;81.62
13241;BME280;6687;47.790;7.322;2024-02-26T14:19:16;97204.88;;;14.51;87.15
13241;BME280;6687;47.790;7.322;2024-02-26T14:21:43;97199.81;;;14.69;85.28
13241;BME280;6687;47.790;7.322;2024-02-26T14:24:10;97202.38;;;14.28;73.48
13241;BME280;6687;47.790;7.322;2024-02-26T14:26:36;97205.50;;;14.16;69.79
13241;BME280;6687;47.790;7.322;2024-02-26T14:29:03;97209.41;;;14.26;73.61
13241;BME280;6687;47.790;7.322;2024-02-26T14:31:30;97211.16;;;14.25;68.84
13241;BME280;6687;47.790;7.322;2024-02-26T14:33:58;97208.63;;;14.24;69.25
13241;BME280;6687;47.790;7.322;2024-02-26T14:36:25;97215.44;;;14.06;67.22
13241;BME280;6687;47.790;7.322;2024-02-26T14:38:52;97221.06;;;14.17;67.52
13241;BME280;6687;47.790;7.322;2024-02-26T14:41:17;97222.25;;;14.30;65.97
13241;BME280;6687;47.790;7.322;2024-02-26T14:43:44;97224.94;;;14.49;68.36
13241;BME280;6687;47.790;7.322;2024-02-26T14:46:11;97223.34;;;14.25;66.46
13241;BME280;6687;47.790;7.322;2024-02-26T14:48:37;97224.28;;;14.44;67.24
13241;BME280;6687;47.790;7.322;2024-02-26T14:51:05;97225.56;;;14.34;67.18
13241;BME280;6687;47.790;7.322;2024-02-26T14:53:33;97225.44;;;14.17;64.64
13241;BME280;6687;47.790;7.322;2024-02-26T14:56:00;97235.34;;;14.29;67.75
13241;BME280;6687;47.790;7.322;2024-02-26T14:58:27;97224.66;;;14.15;66.00
13241;BME280;6687;47.790;7.322;2024-02-26T15:00:54;97230.88;;;13.88;63.59
13241;BME280;6687;47.790;7.322;2024-02-26T15:03:20;97223.09;;;14.31;66.82
13241;BME280;6687;47.790;7.322;2024-02-26T15:05:47;97232.47;;;14.15;66.53
13241;BME280;6687;47.790;7.322;2024-02-26T15:08:15;97235.34;;;14.29;66.55
13241;BME280;6687;47.790;7.322;2024-02-26T15:10:42;97238.59;;;14.34;66.64
13241;BME280;6687;47.790;7.322;2024-02-26T15:13:13;97235.66;;;13.99;65.52
13241;BME280;6687;47.790;7.322;2024-02-26T15:15:40;97240.44;;;13.88;65.77
13241;BME280;6687;47.790;7.322;2024-02-26T15:18:07;97245.03;;;14.25;64.93
13241;BME280;6687;47.790;7.322;2024-02-26T15:20:36;97244.06;;;14.28;66.76
13241;BME280;6687;47.790;7.322;2024-02-26T15:23:04;97238.25;;;14.21;64.80
13241;BME280;6687;47.790;7.322;2024-02-26T15:25:32;97235.84;;;14.17;65.23
13241;BME280;6687;47.790;7.322;2024-02-26T15:27:58;97245.53;;;13.91;64.07
13241;BME280;6687;47.790;7.322;2024-02-26T15:30:25;97251.69;;;14.10;64.63
13241;BME280;6687;47.790;7.322;2024-02-26T15:32:54;97251.69;;;13.66;63.10
13241;BME280;6687;47.790;7.322;2024-02-26T15:35:21;97252.19;;;13.98;64.87
13241;BME280;6687;47.790;7.322;2024-02-26T15:37:48;97259.84;;;14.03;65.38
13241;BME280;6687;47.790;7.322;2024-02-26T15:40:15;97254.78;;;13.98;65.58
13241;BME280;6687;47.790;7.322;2024-02-26T15:42:45;97262.59;;;13.76;65.65
13241;BME280;6687;47.790;7.322;2024-02-26T15:45:12;97275.13;;;13.88;65.63
13241;BME280;6687;47.790;7.322;2024-02-26T15:47:40;97275.06;;;13.90;68.47
13241;BME280;6687;47.790;7.322;2024-02-26T15:50:08;97275.66;;;13.75;64.23
13241;BME280;6687;47.790;7.322;2024-02-26T15:52:35;97281.59;;;13.78;64.81
13241;BME280;6687;47.790;7.322;2024-02-26T15:55:03;97278.09;;;13.79;66.17
13241;BME280;6687;47.790;7.322;2024-02-26T15:57:30;97281.59;;;13.78;67.28
13241;BME280;6687;47.790;7.322;2024-02-26T15:59:58;97282.94;;;13.88;66.85
13241;BME280;6687;47.790;7.322;2024-02-26T16:02:27;97291.94;;;14.03;67.73
13241;BME280;6687;47.790;7.322;2024-02-26T16:04:53;97290.38;;;13.76;65.60
13241;BME280;6687;47.790;7.322;2024-02-26T16:07:25;97296.34;;;13.79;66.13
13241;BME280;6687;47.790;7.322;2024-02-26T16:09:54;97297.13;;;13.81;66.12
13241;BME280;6687;47.790;7.322;2024-02-26T16:12:27;97300.94;;;13.95;65.36
13241;BME280;6687;47.790;7.322;2024-02-26T16:14:57;97300.72;;;14.01;66.73
13241;BME280;6687;47.790;7.322;2024-02-26T16:17:27;97298.94;;;14.01;65.92
13241;BME280;6687;47.790;7.322;2024-02-26T16:19:57;97303.31;;;14.01;66.85
13241;BME280;6687;47.790;7.322;2024-02-26T16:22:24;97305.53;;;13.88;67.53
13241;BME280;6687;47.790;7.322;2024-02-26T16:24:51;97307.28;;;13.87;67.25
13241;BME280;6687;47.790;7.322;2024-02-26T16:27:18;97312.00;;;13.78;66.26
13241;BME280;6687;47.790;7.322;2024-02-26T16:29:44;97316.50;;;13.96;67.34
13241;BME280;6687;47.790;7.322;2024-02-26T16:32:12;97315.84;;;13.67;66.49
13241;BME280;6687;47.790;7.322;2024-02-26T16:34:39;97324.31;;;13.96;66.56
13241;BME280;6687;47.790;7.322;2024-02-26T16:37:08;97332.50;;;13.87;67.43
13241;BME280;6687;47.790;7.322;2024-02-26T16:39:36;97331.38;;;13.92;68.21
13241;BME280;6687;47.790;7.322;2024-02-26T16:42:03;97334.31;;;13.85;66.24
13241;BME280;6687;47.790;7.322;2024-02-26T16:44:30;97331.78;;;14.05;70.78
13241;BME280;6687;47.790;7.322;2024-02-26T16:46:59;97337.53;;;13.68;67.40
13241;BME280;6687;47.790;7.322;2024-02-26T16:49:27;97345.59;;;13.60;67.40
13241;BME280;6687;47.790;7.322;2024-02-26T16:51:54;97338.88;;;13.78;69.11
13241;BME280;6687;47.790;7.322;2024-02-26T16:54:21;97347.88;;;13.69;70.34
13241;BME280;6687;47.790;7.322;2024-02-26T16:56:47;97350.94;;;13.57;70.53
13241;BME280;6687;47.790;7.322;2024-02-26T16:59:14;97340.41;;;13.60;71.22
13241;BME280;6687;47.790;7.322;2024-02-26T17:01:44;97344.91;;;13.31;68.98
13241;BME280;6687;47.790;7.322;2024-02-26T17:04:11;97339.91;;;13.25;69.79
13241;BME280;6687;47.790;7.322;2024-02-26T17:06:39;97346.78;;;13.26;69.58
13241;BME280;6687;47.790;7.322;2024-02-26T17:09:06;97350.38;;;13.22;71.04
13241;BME280;6687;47.790;7.322;2024-02-26T17:11:33;97355.19;;;13.35;72.22
13241;BME280;6687;47.790;7.322;2024-02-26T17:14:01;97360.78;;;13.49;71.81
13241;BME280;6687;47.790;7.322;2024-02-26T17:16:29;97351.66;;;13.10;70.93
13241;BME280;6687;47.790;7.322;2024-02-26T17:18:55;97361.31;;;13.07;72.12
13241;BME280;6687;47.790;7.322;2024-02-26T17:21:23;97360.31;;;12.86;71.64
13241;BME280;6687;47.790;7.322;2024-02-26T17:23:51;97371.91;;;13.01;74.94
13241;BME280;6687;47.790;7.322;2024-02-26T17:26:18;97366.84;;;12.98;75.25
13241;BME280;6687;47.790;7.322;2024-02-26T17:28:45;97364.38;;;12.93;74.74
13241;BME280;6687;47.790;7.322;2024-02-26T17:31:11;97378.03;;;12.73;75.33
13241;BME280;6687;47.790;7.322;2024-02-26T17:33:38;97386.59;;;12.77;75.63
13241;BME280;6687;47.790;7.322;2024-02-26T17:36:06;97389.81;;;12.57;75.58
13241;BME280;6687;47.790;7.322;2024-02-26T17:38:33;97392.66;;;12.49;76.34
13241;BME280;6687;47.790;7.322;2024-02-26T17:41:01;97395.59;;;12.38;76.09
13241;BME280;6687;47.790;7.322;2024-02-26T17:43:28;97401.31;;;12.49;77.25
13241;BME280;6687;47.790;7.322;2024-02-26T17:45:55;97410.47;;;12.33;78.79
13241;BME280;6687;47.790;7.322;2024-02-26T17:48:22;97413.66;;;12.41;78.83
13241;BME280;6687;47.790;7.322;2024-02-26T17:50:49;97419.16;;;12.32;78.57
13241;BME280;6687;47.790;7.322;2024-02-26T17:53:15;97420.63;;;12.11;79.27
13241;BME280;6687;47.790;7.322;2024-02-26T17:55:43;97420.66;;;12.39;80.14
13241;BME280;6687;47.790;7.322;2024-02-26T17:58:11;97427.13;;;11.96;79.95
13241;BME280;6687;47.790;7.322;2024-02-26T18:00:40;97427.34;;;11.87;79.45
13241;BME280;6687;47.790;7.322;2024-02-26T18:03:07;97430.28;;;11.74;80.38
13241;BME280;6687;47.790;7.322;2024-02-26T18:05:33;97432.88;;;11.74;81.08
13241;BME280;6687;47.790;7.322;2024-02-26T18:08:00;97428.94;;;11.94;80.33
13241;BME280;6687;47.790;7.322;2024-02-26T18:10:27;97434.84;;;11.66;81.04
13241;BME280;6687;47.790;7.322;2024-02-26T18:12:54;97434.44;;;11.49;82.22
13241;BME280;6687;47.790;7.322;2024-02-26T18:15:25;97429.91;;;11.57;82.33
13241;BME280;6687;47.790;7.322;2024-02-26T18:17:52;97442.03;;;11.57;82.79
13241;BME280;6687;47.790;7.322;2024-02-26T18:20:18;97443.38;;;11.37;84.15
13241;BME280;6687;47.790;7.322;2024-02-26T18:22:45;97449.00;;;11.54;84.47
13241;BME280;6687;47.790;7.322;2024-02-26T18:25:12;97447.72;;;11.37;85.38
13241;BME280;6687;47.790;7.322;2024-02-26T18:27:39;97446.16;;;11.31;85.72
13241;BME280;6687;47.790;7.322;2024-02-26T18:30:07;97454.16;;;11.22;86.96
13241;BME280;6687;47.790;7.322;2024-02-26T18:32:36;97453.41;;;11.18;87.11
13241;BME280;6687;47.790;7.322;2024-02-26T18:35:03;97464.69;;;11.14;87.72
13241;BME280;6687;47.790;7.322;2024-02-26T18:37:29;97469.31;;;11.03;87.94
13241;BME280;6687;47.790;7.322;2024-02-26T18:39:56;97476.38;;;10.96;87.80
13241;BME280;6687;47.790;7.322;2024-02-26T18:42:23;97475.81;;;10.83;87.67
13241;BME280;6687;47.790;7.322;2024-02-26T18:44:49;97477.97;;;11.02;88.75
13241;BME280;6687;47.790;7.322;2024-02-26T18:47:16;97474.22;;;10.78;88.25
13241;BME280;6687;47.790;7.322;2024-02-26T18:49:47;97479.75;;;11.00;87.38
13241;BME280;6687;47.790;7.322;2024-02-26T18:52:13;97486.69;;;10.98;87.30
13241;BME280;6687;47.790;7.322;2024-02-26T18:54:40;97496.03;;;11.06;88.53
13241;BME280;6687;47.790;7.322;2024-02-26T18:57:08;97498.59;;;11.06;88.15
13241;BME280;6687;47.790;7.322;2024-02-26T18:59:35;97500.59;;;10.56;87.66
13241;BME280;6687;47.790;7.322;2024-02-26T19:02:02;97507.16;;;10.72;87.99
13241;BME280;6687;47.790;7.322;2024-02-26T19:04:29;97503.66;;;10.73;87.25
13241;BME280;6687;47.790;7.322;2024-02-26T19:06:57;97513.47;;;10.61;86.97
13241;BME280;6687;47.790;7.322;2024-02-26T19:09:24;97511.31;;;10.78;86.57
13241;BME280;6687;47.790;7.322;2024-02-26T19:11:53;97520.84;;;10.37;87.45
13241;BME280;6687;47.790;7.322;2024-02-26T19:14:20;97516.38;;;10.45;86.69
13241;BME280;6687;47.790;7.322;2024-02-26T19:16:47;97520.19;;;10.68;87.64
13241;BME280;6687;47.790;7.322;2024-02-26T19:19:14;97517.06;;;10.53;87.12
13241;BME280;6687;47.790;7.322;2024-02-26T19:21:41;97520.56;;;10.51;86.73
13241;BME280;6687;47.790;7.322;2024-02-26T19:24:09;97524.72;;;10.58;86.98
13241;BME280;6687;47.790;7.322;2024-02-26T19:26:40;97529.50;;;10.36;87.49
13241;BME280;6687;47.790;7.322;2024-02-26T19:29:06;97529.78;;;10.21;88.43